Weather at Đá Tây (West London Reef) Helipad [CLOSED]

Public forecast

Using degrees Celsius for public forecast. Weather courtesy of forecast.io.

Closest aviation weather report (METAR) to Đá Tây (West London Reef) Helipad

Closest report is Kudat Airport, 299.1 nm (554.0 km) ESE.

2024/06/23 05:00 (retrieved 33 minutes ago)

WBKT 230500Z 24011KT 190V320 9999 FEW014 28/24 Q1010

Closest aviation forecast (TAF) to Đá Tây (West London Reef) Helipad

Forecast is more than 12 hours old.

Closest forecast is Car Nicobar Air Force Base, 1,149.1 nm (2,128.1 km) W.

2024/06/22 12:00 (retrieved 18 hours ago)

TAF VOCX 220930Z 2212/2224 23010KT 5000 RA SCT012 SCT015 BKN080 TEMPO 2212/2216 23010G20KT 2000 TSRA SCT012 SCT015 FEW025CB BKN080